Aviation

Metar/Speci

station

VRMH

METAR VRMH 182200Z 28005KT 9999 FEW018 BKN120 28/25 Q1010=

40 minutes ago

VRMM

METAR VRMM 182200Z 31006KT 9999 FEW017TCU BKN120 28/25 Q1010 TEMPO 5000 SHRA FEW018CB=

40 minutes ago

VRMK

METAR VRMK 182200Z 26004KT 8000 -RA FEW018TCU BKN120 26/25 Q1010=

37 minutes ago

VRMT

METAR VRMT 182200Z 33007KT 9999 FEW018TCU BKN120 27/25 Q1010=

40 minutes ago

VRMG

SPECI VRMG 182215Z 29022KT 6000 -SHRA SCT017 FEW018CB BKN260 25/24 Q1010 RESHRA CB S,SW,W TEMPO 5000 SHRA FEW018CB=

18 minutes ago

Synop

station

43533

AAXX 18214 43533 42465 72705 10275 20249 30102 40104 8227/ 333 58021 82818 87362=

1 hour ago

43555

AAXX 18214 43555 42462 72907 10275 20246 30103 40105 8227/ 333 58022 82817 87361=

1 hour ago

43577

AAXX 18214 43577 41458 73206 10247 20233 30107 40109 78082 8327/ 333 58025 83817 87362=

1 hour ago

43588

AAXX 18214 43588 42462 73204 10270 20243 30102 40103 8223/ 333 58022 82818 87362=

1 hour ago

43599

AAXX 18214 43599 42460 70000 10256 20245 30101 40103 82238 333 58021 82818 83362 87276=

1 hour ago

Tafs

station

VRMH

VRMH 182300Z 1900/2006 28005KT 9999 FEW018TCU BKN120 TEMPO 1900/1906 5000 SHRA FEW018CB=

4 minutes ago

VRMM

VRMM 182300Z 1900/2006 29008KT 9999 FEW18TCU BKN110 TEMPO 1900/1906 5000 SHRA FEW018CB=

4 minutes ago

VRMK

VRMK 182300Z 1900/1924 32006KT 9999 FEW018TCU BKN110 TEMPO 1900/1906 5000 SHRA FEW018CB=

4 minutes ago

VRMT

VRMT 182300Z 1900/1924 31006KT 9999 FEW018TCU BKN110 TEMPO 1900/1906 5000 SHRA FEW018CB=

4 minutes ago

VRMG

VRMG 182300Z 1900/2006 VRB03KT 9000 FEW018TCU BKN10TEMPO 1900/1906 5000 SHRA FEW018CB=

4 minutes ago

Sigmet

Flight folders

No flight folder available at the moment.